Ora Direzione Vento Velocita' Vento Media Vento Raffica Max. Temperatura Wind Chill Pioggia Pressione
14:59:36.070 °(ENE)6.1 Kts3.5 Kts18.2 Kts16.1 °C16.1 °C0.0 mm990.5 Hpa
14:38:04.096 °(E)5.2 Kts4.3 Kts18.2 Kts16.2 °C15.4 °C0.0 mm990.7 Hpa
14:18:56.0101 °(E)3.5 Kts2.6 Kts18.2 Kts16.3 °C16.3 °C0.0 mm990.9 Hpa
13:58:47.0114 °(ESE)4.3 Kts5.2 Kts18.2 Kts15.9 °C14.4 °C0.0 mm990.8 Hpa
13:38:40.089 °(E)6.1 Kts6.1 Kts18.2 Kts16.4 °C14.3 °C0.0 mm990.7 Hpa
13:19:26.0224 °(SW)0.0 Kts2.6 Kts18.2 Kts18.7 °C18.7 °C0.0 mm990.8 Hpa
12:59:05.0202 °(SSW)1.7 Kts0.9 Kts18.2 Kts21.0 °C21.0 °C0.0 mm990.5 Hpa
12:38:50.0186 °(S)1.7 Kts0.9 Kts18.2 Kts20.2 °C20.2 °C0.0 mm990.9 Hpa
12:19:33.0267 °(W)0.0 Kts0.9 Kts18.2 Kts20.6 °C20.6 °C0.0 mm991.3 Hpa
11:59:07.0206 °(SSW)4.3 Kts2.6 Kts18.2 Kts20.7 °C20.7 °C0.0 mm991.3 Hpa
11:38:45.0246 °(WSW)3.5 Kts4.3 Kts18.2 Kts20.5 °C19.7 °C0.0 mm991.2 Hpa
11:18:27.0156 °(SSE)2.6 Kts3.5 Kts18.2 Kts20.2 °C20.2 °C0.0 mm990.7 Hpa
10:59:20.0167 °(SSE)3.5 Kts4.3 Kts18.2 Kts19.7 °C19.0 °C0.0 mm990.8 Hpa
10:38:04.0110 °(ESE)0.9 Kts1.7 Kts18.2 Kts19.2 °C19.2 °C0.0 mm990.9 Hpa
10:19:29.0135 °(SE)0.0 Kts0.9 Kts18.2 Kts18.5 °C18.5 °C0.0 mm991.0 Hpa
09:59:36.0130 °(SE)0.0 Kts0.0 Kts18.2 Kts18.2 °C18.2 °C0.0 mm991.2 Hpa
09:39:23.0228 °(SW)0.0 Kts0.0 Kts18.2 Kts18.0 °C18.0 °C0.0 mm991.1 Hpa
09:18:59.0101 °(E)0.0 Kts0.0 Kts18.2 Kts17.6 °C17.6 °C0.0 mm990.9 Hpa
08:58:46.0214 °(SW)0.0 Kts0.9 Kts18.2 Kts16.5 °C16.5 °C0.0 mm990.8 Hpa
08:38:34.0109 °(ESE)4.3 Kts0.9 Kts18.2 Kts16.5 °C16.5 °C0.0 mm990.9 Hpa